createdAt,value
2023-05-20T00:02:03.001Z,12.63
2023-05-20T00:07:04.552Z,12.50
2023-05-20T00:12:05.943Z,12.37
2023-05-20T00:17:06.735Z,12.41
2023-05-20T00:22:07.849Z,12.18
2023-05-20T00:27:08.623Z,12.14
2023-05-20T00:32:09.932Z,12.05
2023-05-20T00:37:10.728Z,11.96
2023-05-20T00:42:18.834Z,11.87
2023-05-20T00:47:25.928Z,11.73
2023-05-20T00:52:30.612Z,11.68
2023-05-20T00:57:31.430Z,11.59
2023-05-20T01:02:32.541Z,11.66
2023-05-20T01:07:33.608Z,11.58
2023-05-20T01:12:39.248Z,11.56
2023-05-20T01:17:45.900Z,11.79
2023-05-20T01:22:48.311Z,11.66
2023-05-20T01:27:50.221Z,11.66
2023-05-20T01:32:56.990Z,11.56
2023-05-20T01:37:59.290Z,11.64
2023-05-20T01:43:02.011Z,11.72
2023-05-20T01:48:03.400Z,11.54
2023-05-20T01:53:05.336Z,11.60
2023-05-20T01:58:06.124Z,11.72
2023-05-20T02:03:07.265Z,11.57
2023-05-20T02:08:10.149Z,11.57
2023-05-20T02:13:12.015Z,11.57
2023-05-20T02:18:17.684Z,11.57
2023-05-20T02:23:18.686Z,11.54
2023-05-20T02:28:19.555Z,11.53
2023-05-20T02:33:20.607Z,11.49
2023-05-20T02:38:21.499Z,11.39
2023-05-20T02:43:22.364Z,11.32
2023-05-20T02:48:23.198Z,11.33
2023-05-20T02:53:24.359Z,11.27
2023-05-20T02:58:25.470Z,11.17
2023-05-20T03:03:26.830Z,10.98
2023-05-20T03:08:27.732Z,11.09
2023-05-20T03:13:28.865Z,11.05
2023-05-20T03:18:32.573Z,11.09
2023-05-20T03:23:34.464Z,11.13
2023-05-20T03:28:35.581Z,11.16
2023-05-20T03:33:36.475Z,11.09
2023-05-20T03:38:37.783Z,11.08
2023-05-20T03:43:38.847Z,11.01
2023-05-20T03:48:40.370Z,10.97
2023-05-20T03:53:41.492Z,10.96
2023-05-20T03:58:43.566Z,10.75
2023-05-20T04:03:44.667Z,10.68
2023-05-20T04:08:45.721Z,10.76
2023-05-20T04:13:46.639Z,10.75
2023-05-20T04:18:48.256Z,10.63
2023-05-20T04:23:49.910Z,10.66
2023-05-20T04:28:51.149Z,10.75
2023-05-20T04:33:53.087Z,10.61
2023-05-20T04:38:57.084Z,10.68
2023-05-20T04:43:59.690Z,10.61
2023-05-20T04:49:00.599Z,10.62
2023-05-20T04:54:01.691Z,10.79
2023-05-20T04:59:03.370Z,10.67
2023-05-20T05:04:04.734Z,10.89
2023-05-20T05:09:05.649Z,10.92
2023-05-20T05:14:06.615Z,10.94
2023-05-20T05:19:10.329Z,11.14
2023-05-20T05:24:13.222Z,11.45
2023-05-20T05:29:14.867Z,11.59
2023-05-20T05:34:15.960Z,11.73
2023-05-20T05:39:16.843Z,12.07
2023-05-20T05:44:18.627Z,12.26
2023-05-20T05:49:20.746Z,12.44
2023-05-20T05:54:22.097Z,12.80
2023-05-20T05:59:23.881Z,13.16
2023-05-20T06:04:25.169Z,13.44
2023-05-20T06:09:28.726Z,13.81
2023-05-20T06:14:31.842Z,14.04
2023-05-20T06:19:33.022Z,14.27
2023-05-20T06:24:34.601Z,14.17
2023-05-20T06:29:36.240Z,13.96
2023-05-20T06:34:37.158Z,13.75
2023-05-20T06:39:38.116Z,13.51
2023-05-20T06:44:39.015Z,13.47
2023-05-20T06:49:49.472Z,13.62
2023-05-20T06:54:50.466Z,13.70
2023-05-20T06:59:52.244Z,14.29
2023-05-20T07:04:54.413Z,14.44
2023-05-20T07:09:56.935Z,14.70
2023-05-20T07:14:57.801Z,14.88
2023-05-20T07:19:59.737Z,14.61
2023-05-20T07:25:01.580Z,14.37
2023-05-20T07:30:03.545Z,13.93
2023-05-20T07:35:08.505Z,14.00
2023-05-20T07:40:10.143Z,13.92
2023-05-20T07:45:12.346Z,14.22
2023-05-20T07:50:13.406Z,14.43
2023-05-20T07:55:15.989Z,14.60
2023-05-20T08:00:17.373Z,14.79
2023-05-20T08:05:18.210Z,15.01
2023-05-20T08:10:20.316Z,15.55
2023-05-20T08:15:21.730Z,15.41
2023-05-20T08:20:23.165Z,15.56
2023-05-20T08:25:26.879Z,15.79
2023-05-20T08:30:28.297Z,16.04
2023-05-20T08:35:29.403Z,16.24
2023-05-20T08:40:30.877Z,15.77
2023-05-20T08:45:33.589Z,15.38
2023-05-20T08:50:38.457Z,15.46
2023-05-20T08:55:45.976Z,15.77
2023-05-20T09:00:46.830Z,15.74
2023-05-20T09:05:48.024Z,15.84
2023-05-20T09:10:51.881Z,16.32
2023-05-20T09:15:52.963Z,16.53
2023-05-20T09:20:54.380Z,16.64
2023-05-20T09:25:55.306Z,16.15
2023-05-20T09:30:59.274Z,16.29
2023-05-20T09:36:04.289Z,16.33
2023-05-20T09:41:07.849Z,16.48
2023-05-20T09:46:10.100Z,16.31
2023-05-20T09:51:12.641Z,15.98
2023-05-20T09:56:14.452Z,15.42
2023-05-20T10:01:15.468Z,15.33
2023-05-20T10:07:06.235Z,15.77
2023-05-20T10:12:45.355Z,16.07
2023-05-20T10:20:32.223Z,16.37
2023-05-20T10:25:33.672Z,16.28
2023-05-20T10:30:35.434Z,16.40
2023-05-20T10:35:47.457Z,16.17
2023-05-20T10:40:48.310Z,16.04
2023-05-20T10:45:54.970Z,16.13
2023-05-20T10:50:59.014Z,16.50
2023-05-20T10:55:59.892Z,16.61
2023-05-20T11:01:02.592Z,16.30
2023-05-20T11:06:16.054Z,16.22
2023-05-20T11:11:18.508Z,16.25
2023-05-20T11:16:22.446Z,16.25
2023-05-20T11:21:23.306Z,16.24
2023-05-20T11:26:24.127Z,17.20
2023-05-20T11:31:25.556Z,18.01
2023-05-20T11:36:28.418Z,17.96
2023-05-20T11:41:29.196Z,18.18
2023-05-20T11:46:30.530Z,18.72
2023-05-20T11:51:31.488Z,19.07
2023-05-20T11:56:36.700Z,18.61
2023-05-20T12:01:42.598Z,18.36
2023-05-20T12:06:43.520Z,19.44
2023-05-20T12:11:44.881Z,19.01
2023-05-20T12:16:45.712Z,18.55
2023-05-20T12:21:46.589Z,18.17
2023-05-20T12:26:47.502Z,17.69
2023-05-20T12:31:48.489Z,17.25
2023-05-20T12:36:49.323Z,17.91
2023-05-20T12:41:50.444Z,18.50
2023-05-20T12:46:54.265Z,18.82
2023-05-20T12:51:55.158Z,19.01
2023-05-20T12:56:56.446Z,18.72
2023-05-20T13:01:57.602Z,18.63
2023-05-20T13:06:58.857Z,18.74
2023-05-20T13:12:02.929Z,19.56
2023-05-20T13:17:04.347Z,20.05
2023-05-20T13:22:06.130Z,19.87
2023-05-20T13:27:07.536Z,19.06
2023-05-20T13:32:08.453Z,18.44
2023-05-20T13:37:09.302Z,18.19
2023-05-20T13:42:10.270Z,18.05
2023-05-20T13:47:11.109Z,17.88
2023-05-20T13:52:12.005Z,18.15
2023-05-20T13:57:12.848Z,18.06
2023-05-20T14:02:14.015Z,17.88
2023-05-20T14:07:15.029Z,17.43
2023-05-20T14:12:16.004Z,17.31
2023-05-20T14:17:17.075Z,17.42
2023-05-20T14:22:19.214Z,17.52
2023-05-20T14:27:20.208Z,17.57
2023-05-20T14:32:21.286Z,17.80
2023-05-20T14:37:22.324Z,17.98
2023-05-20T14:42:23.303Z,17.91
2023-05-20T14:47:25.368Z,17.64
2023-05-20T14:52:26.488Z,17.64
2023-05-20T14:57:27.512Z,17.75
2023-05-20T15:02:28.642Z,18.02
2023-05-20T15:07:29.683Z,18.50
2023-05-20T15:12:30.540Z,18.01
2023-05-20T15:17:31.417Z,17.70
2023-05-20T15:22:32.510Z,17.71
2023-05-20T15:27:33.351Z,18.15
2023-05-20T15:32:34.689Z,18.08
2023-05-20T15:37:35.714Z,17.90
2023-05-20T15:42:36.586Z,17.63
2023-05-20T15:47:40.421Z,17.56
2023-05-20T15:52:41.826Z,18.03
2023-05-20T15:57:42.682Z,18.02
2023-05-20T16:02:43.907Z,17.81
2023-05-20T16:07:46.075Z,17.64
2023-05-20T16:12:47.309Z,17.34
2023-05-20T16:17:48.181Z,17.34
2023-05-20T16:22:49.458Z,17.20
2023-05-20T16:27:50.527Z,17.13
2023-05-20T16:32:51.643Z,17.18
2023-05-20T16:37:52.498Z,17.22
2023-05-20T16:42:53.607Z,17.18
2023-05-20T16:47:55.663Z,17.22
2023-05-20T16:52:58.248Z,17.11
2023-05-20T16:57:59.072Z,17.01
2023-05-20T17:03:00.400Z,17.01
2023-05-20T17:08:01.368Z,17.05
2023-05-20T17:13:03.325Z,17.10
2023-05-20T17:18:04.321Z,17.20
2023-05-20T17:23:05.340Z,17.26
2023-05-20T17:28:06.226Z,17.32
2023-05-20T17:33:07.311Z,17.21
2023-05-20T17:38:08.210Z,17.30
2023-05-20T17:43:09.129Z,17.15
2023-05-20T17:48:11.725Z,17.04
2023-05-20T17:53:12.889Z,16.99
2023-05-20T17:58:13.753Z,16.96
2023-05-20T18:03:14.820Z,16.73
2023-05-20T18:08:18.324Z,16.52
2023-05-20T18:13:19.209Z,16.33
2023-05-20T18:18:20.091Z,16.29
2023-05-20T18:23:20.901Z,16.27
2023-05-20T18:28:21.707Z,16.13
2023-05-20T18:33:23.721Z,15.94
2023-05-20T18:38:25.135Z,15.79
2023-05-20T18:43:26.526Z,15.57
2023-05-20T18:48:27.626Z,15.54
2023-05-20T18:53:28.635Z,15.41
2023-05-20T18:58:29.911Z,15.22
2023-05-20T19:03:30.908Z,15.15
2023-05-20T19:08:31.765Z,15.04
2023-05-20T19:13:33.555Z,15.01
2023-05-20T19:18:34.422Z,14.74
2023-05-20T19:23:35.567Z,14.67
2023-05-20T19:28:36.392Z,14.65
2023-05-20T19:33:37.567Z,14.54
2023-05-20T19:38:38.387Z,14.47
2023-05-20T19:43:40.030Z,14.33
2023-05-20T19:48:41.441Z,14.36
2023-05-20T19:53:42.279Z,14.26
2023-05-20T19:58:43.114Z,14.30
2023-05-20T20:03:45.370Z,14.23
2023-05-20T20:08:46.292Z,14.20
2023-05-20T20:13:47.172Z,14.13
2023-05-20T20:18:47.997Z,13.97
2023-05-20T20:23:48.881Z,14.16
2023-05-20T20:28:49.845Z,14.04
2023-05-20T20:33:51.475Z,13.94
2023-05-20T20:38:52.292Z,13.81
2023-05-20T20:43:53.762Z,13.79
2023-05-20T20:48:54.580Z,13.81
2023-05-20T20:53:55.479Z,13.68
2023-05-20T20:58:56.406Z,13.70
2023-05-20T21:03:57.905Z,13.57
2023-05-20T21:09:01.258Z,13.38
2023-05-20T21:14:02.053Z,13.43
2023-05-20T21:19:03.176Z,13.58
2023-05-20T21:24:04.289Z,13.65
2023-05-20T21:29:06.527Z,13.50
2023-05-20T21:34:07.466Z,13.49
2023-05-20T21:39:08.392Z,13.49
2023-05-20T21:44:09.241Z,13.44
2023-05-20T21:49:10.106Z,13.45
2023-05-20T21:54:10.928Z,13.41
2023-05-20T21:59:12.141Z,13.39
2023-05-20T22:04:13.117Z,13.39
2023-05-20T22:09:14.108Z,13.43
2023-05-20T22:14:15.296Z,13.29
2023-05-20T22:19:16.900Z,13.35
2023-05-20T22:24:17.988Z,13.44
2023-05-20T22:29:19.110Z,13.31
2023-05-20T22:34:19.993Z,13.24
2023-05-20T22:39:21.277Z,13.30
2023-05-20T22:44:22.070Z,13.27
2023-05-20T22:49:25.910Z,13.23
2023-05-20T22:54:26.755Z,13.20
2023-05-20T22:59:30.371Z,13.24
2023-05-20T23:04:31.552Z,13.33
2023-05-20T23:09:32.741Z,13.05
2023-05-20T23:14:33.793Z,13.12
2023-05-20T23:19:34.753Z,13.03
2023-05-20T23:24:35.664Z,13.01
2023-05-20T23:29:37.026Z,13.03
2023-05-20T23:34:37.950Z,13.00
2023-05-20T23:39:38.792Z,13.03
2023-05-20T23:44:39.979Z,12.98
2023-05-20T23:49:40.824Z,13.04
2023-05-20T23:54:41.633Z,13.12
2023-05-20T23:59:42.929Z,13.19
